sensor_id;sensor_type;location;lat;lon;timestamp;pressure;altitude;pressure_sealevel;temperature;humidity
75692;BME280;64307;52.508;6.090;2023-01-15T00:03:44;99712.56;;;7.26;85.38
75692;BME280;64307;52.508;6.090;2023-01-15T00:06:10;99714.13;;;7.27;84.80
75692;BME280;64307;52.508;6.090;2023-01-15T00:08:36;99713.34;;;7.27;85.08
75692;BME280;64307;52.508;6.090;2023-01-15T00:11:04;99706.66;;;7.24;85.14
75692;BME280;64307;52.508;6.090;2023-01-15T00:13:30;99716.88;;;7.31;84.97
75692;BME280;64307;52.508;6.090;2023-01-15T00:16:14;99707.41;;;7.28;85.01
75692;BME280;64307;52.508;6.090;2023-01-15T00:18:41;99705.44;;;7.25;85.41
75692;BME280;64307;52.508;6.090;2023-01-15T00:21:10;99707.03;;;7.23;84.88
75692;BME280;64307;52.508;6.090;2023-01-15T00:23:35;99702.31;;;7.16;85.14
75692;BME280;64307;52.508;6.090;2023-01-15T00:26:21;99714.97;;;7.17;85.05
75692;BME280;64307;52.508;6.090;2023-01-15T00:29:05;99717.34;;;7.15;85.00
75692;BME280;64307;52.508;6.090;2023-01-15T00:31:32;99714.97;;;7.10;85.46
75692;BME280;64307;52.508;6.090;2023-01-15T00:33:59;99708.28;;;7.11;85.52
75692;BME280;64307;52.508;6.090;2023-01-15T00:36:25;99711.03;;;7.11;85.02
75692;BME280;64307;52.508;6.090;2023-01-15T00:38:51;99704.31;;;7.09;84.18
75692;BME280;64307;52.508;6.090;2023-01-15T00:41:16;99713.81;;;7.11;85.02
75692;BME280;64307;52.508;6.090;2023-01-15T00:43:41;99713.81;;;7.11;85.33
75692;BME280;64307;52.508;6.090;2023-01-15T00:46:07;99713.81;;;7.11;84.59
75692;BME280;64307;52.508;6.090;2023-01-15T00:48:33;99719.72;;;7.13;84.03
75692;BME280;64307;52.508;6.090;2023-01-15T00:50:59;99711.81;;;7.15;83.45
75692;BME280;64307;52.508;6.090;2023-01-15T00:53:25;99718.13;;;7.12;83.70
75692;BME280;64307;52.508;6.090;2023-01-15T00:55:50;99718.94;;;7.13;83.21
75692;BME280;64307;52.508;6.090;2023-01-15T00:58:15;99714.19;;;7.13;83.82
75692;BME280;64307;52.508;6.090;2023-01-15T01:00:41;99706.28;;;7.08;84.27
75692;BME280;64307;52.508;6.090;2023-01-15T01:03:06;99711.06;;;7.04;83.90
75692;BME280;64307;52.508;6.090;2023-01-15T01:05:31;99708.28;;;7.04;83.79
75692;BME280;64307;52.508;6.090;2023-01-15T01:07:57;99708.28;;;7.11;82.24
75692;BME280;64307;52.508;6.090;2023-01-15T01:10:23;99715.00;;;7.07;84.51
75692;BME280;64307;52.508;6.090;2023-01-15T01:12:49;99718.16;;;7.09;83.02
75692;BME280;64307;52.508;6.090;2023-01-15T01:15:17;99720.50;;;7.17;82.22
75692;BME280;64307;52.508;6.090;2023-01-15T01:17:43;99704.72;;;7.07;83.61
75692;BME280;64307;52.508;6.090;2023-01-15T01:20:12;99719.72;;;7.13;82.77
75692;BME280;64307;52.508;6.090;2023-01-15T01:22:38;99721.31;;;7.11;82.24
75692;BME280;64307;52.508;6.090;2023-01-15T01:25:04;99710.66;;;7.09;82.74
75692;BME280;64307;52.508;6.090;2023-01-15T01:27:29;99715.00;;;7.07;83.05
75692;BME280;64307;52.508;6.090;2023-01-15T01:29:55;99718.97;;;7.09;82.35
75692;BME280;64307;52.508;6.090;2023-01-15T01:32:20;99716.19;;;7.09;82.37
75692;BME280;64307;52.508;6.090;2023-01-15T01:34:45;99718.19;;;7.05;82.09
75692;BME280;64307;52.508;6.090;2023-01-15T01:37:10;99724.50;;;7.09;82.03
75692;BME280;64307;52.508;6.090;2023-01-15T01:39:36;99724.50;;;7.09;82.71
75692;BME280;64307;52.508;6.090;2023-01-15T01:42:01;99716.59;;;7.04;81.85
75692;BME280;64307;52.508;6.090;2023-01-15T01:47:04;99719.75;;;7.06;81.72
75692;BME280;64307;52.508;6.090;2023-01-15T01:49:34;99724.13;;;7.04;81.53
75692;BME280;64307;52.508;6.090;2023-01-15T01:52:07;99737.56;;;7.05;82.24
75692;BME280;64307;52.508;6.090;2023-01-15T01:54:35;99733.63;;;6.99;83.02
75692;BME280;64307;52.508;6.090;2023-01-15T01:57:03;99729.25;;;7.05;82.23
75692;BME280;64307;52.508;6.090;2023-01-15T01:59:30;99733.63;;;6.99;81.92
75692;BME280;64307;52.508;6.090;2023-01-15T02:01:55;99745.09;;;7.01;81.59
75692;BME280;64307;52.508;6.090;2023-01-15T02:04:21;99739.91;;;7.07;81.30
75692;BME280;64307;52.508;6.090;2023-01-15T02:06:50;99737.97;;;6.97;82.96
75692;BME280;64307;52.508;6.090;2023-01-15T02:09:15;99722.19;;;6.87;82.25
75692;BME280;64307;52.508;6.090;2023-01-15T02:11:41;99736.81;;;6.98;82.42
75692;BME280;64307;52.508;6.090;2023-01-15T02:14:12;99737.56;;;6.98;82.81
75692;BME280;64307;52.508;6.090;2023-01-15T02:17:00;99724.13;;;6.97;82.03
75692;BME280;64307;52.508;6.090;2023-01-15T02:22:00;99721.75;;;6.99;81.48
75692;BME280;64307;52.508;6.090;2023-01-15T02:27:17;99710.66;;;7.02;81.04
75692;BME280;64307;52.508;6.090;2023-01-15T02:29:55;99720.94;;;7.05;81.40
75692;BME280;64307;52.508;6.090;2023-01-15T02:35:10;99722.16;;;7.01;81.55
75692;BME280;64307;52.508;6.090;2023-01-15T02:37:41;99713.09;;;6.93;81.46
75692;BME280;64307;52.508;6.090;2023-01-15T02:40:10;99706.34;;;6.98;80.95
75692;BME280;64307;52.508;6.090;2023-01-15T02:42:38;99699.25;;;6.93;81.40
75692;BME280;64307;52.508;6.090;2023-01-15T02:45:06;99690.16;;;6.93;80.80
75692;BME280;64307;52.508;6.090;2023-01-15T02:47:34;99707.94;;;6.95;81.05
75692;BME280;64307;52.508;6.090;2023-01-15T02:50:05;99696.84;;;6.92;80.37
75692;BME280;64307;52.508;6.090;2023-01-15T02:52:37;99703.19;;;6.92;81.77
75692;BME280;64307;52.508;6.090;2023-01-15T02:55:11;99698.06;;;6.84;80.63
75692;BME280;64307;52.508;6.090;2023-01-15T02:57:38;99700.06;;;6.83;80.86
75692;BME280;64307;52.508;6.090;2023-01-15T03:00:09;99705.19;;;6.88;80.58
75692;BME280;64307;52.508;6.090;2023-01-15T03:02:43;99709.16;;;6.87;80.04
75692;BME280;64307;52.508;6.090;2023-01-15T03:05:15;99712.31;;;6.89;80.24
75692;BME280;64307;52.508;6.090;2023-01-15T03:07:47;99701.66;;;6.81;80.70
75692;BME280;64307;52.508;6.090;2023-01-15T03:10:17;99706.41;;;6.77;80.34
75692;BME280;64307;52.508;6.090;2023-01-15T03:12:49;99704.81;;;6.76;81.46
75692;BME280;64307;52.508;6.090;2023-01-15T03:15:40;99715.88;;;6.79;81.11
75692;BME280;64307;52.508;6.090;2023-01-15T03:18:27;99707.97;;;6.74;81.71
75692;BME280;64307;52.508;6.090;2023-01-15T03:20:56;99707.19;;;6.70;82.68
75692;BME280;64307;52.508;6.090;2023-01-15T03:23:24;99691.00;;;6.72;81.80
75692;BME280;64307;52.508;6.090;2023-01-15T03:25:52;99691.41;;;6.71;82.64
75692;BME280;64307;52.508;6.090;2023-01-15T03:28:24;99694.16;;;6.71;82.64
75692;BME280;64307;52.508;6.090;2023-01-15T03:30:50;99667.69;;;6.59;82.86
75692;BME280;64307;52.508;6.090;2023-01-15T03:33:16;99673.25;;;6.63;83.42
75692;BME280;64307;52.508;6.090;2023-01-15T03:35:56;99683.09;;;6.63;83.59
75692;BME280;64307;52.508;6.090;2023-01-15T03:38:26;99685.09;;;6.67;81.66
75692;BME280;64307;52.508;6.090;2023-01-15T03:43:54;99682.72;;;6.61;81.54
75692;BME280;64307;52.508;6.090;2023-01-15T03:46:52;99658.63;;;6.55;82.08
75692;BME280;64307;52.508;6.090;2023-01-15T03:52:30;99676.38;;;6.68;79.83
75692;BME280;64307;52.508;6.090;2023-01-15T03:57:39;99664.16;;;6.58;81.86
75692;BME280;64307;52.508;6.090;2023-01-15T04:00:13;99683.50;;;6.62;81.17
75692;BME280;64307;52.508;6.090;2023-01-15T04:02:40;99679.56;;;6.56;81.14
75692;BME280;64307;52.508;6.090;2023-01-15T04:05:07;99674.81;;;6.53;81.20
75692;BME280;64307;52.508;6.090;2023-01-15T04:07:32;99687.88;;;6.49;81.89
75692;BME280;64307;52.508;6.090;2023-01-15T04:09:57;99693.03;;;6.40;82.41
75692;BME280;64307;52.508;6.090;2023-01-15T04:12:23;99692.22;;;6.43;81.84
75692;BME280;64307;52.508;6.090;2023-01-15T04:14:48;99691.84;;;6.41;83.21
75692;BME280;64307;52.508;6.090;2023-01-15T04:17:13;99689.47;;;6.39;82.01
75692;BME280;64307;52.508;6.090;2023-01-15T04:19:39;99691.06;;;6.44;82.23
75692;BME280;64307;52.508;6.090;2023-01-15T04:22:04;99676.44;;;6.50;80.60
75692;BME280;64307;52.508;6.090;2023-01-15T04:24:29;99673.25;;;6.52;81.12
75692;BME280;64307;52.508;6.090;2023-01-15T04:26:55;99678.75;;;6.59;79.40
75692;BME280;64307;52.508;6.090;2023-01-15T04:29:20;99677.22;;;6.54;79.62
75692;BME280;64307;52.508;6.090;2023-01-15T04:31:45;99679.56;;;6.56;80.10
75692;BME280;64307;52.508;6.090;2023-01-15T04:34:11;99672.06;;;6.56;79.00
75692;BME280;64307;52.508;6.090;2023-01-15T04:36:36;99685.50;;;6.58;78.99
75692;BME280;64307;52.508;6.090;2023-01-15T04:39:03;99685.91;;;6.56;78.94
75692;BME280;64307;52.508;6.090;2023-01-15T04:41:30;99673.66;;;6.54;79.69
75692;BME280;64307;52.508;6.090;2023-01-15T04:44:14;99670.88;;;6.47;80.09
75692;BME280;64307;52.508;6.090;2023-01-15T04:46:44;99676.44;;;6.50;79.79
75692;BME280;64307;52.508;6.090;2023-01-15T04:49:13;99667.72;;;6.45;79.21
75692;BME280;64307;52.508;6.090;2023-01-15T04:51:38;99682.72;;;6.58;78.99
75692;BME280;64307;52.508;6.090;2023-01-15T04:54:05;99683.53;;;6.58;79.39
75692;BME280;64307;52.508;6.090;2023-01-15T04:56:32;99674.44;;;6.54;79.71
75692;BME280;64307;52.508;6.090;2023-01-15T04:59:01;99672.84;;;6.60;78.89
75692;BME280;64307;52.508;6.090;2023-01-15T05:01:26;99669.31;;;6.56;79.00
75692;BME280;64307;52.508;6.090;2023-01-15T05:03:52;99678.38;;;6.60;78.73
75692;BME280;64307;52.508;6.090;2023-01-15T05:06:18;99674.06;;;6.52;78.82
75692;BME280;64307;52.508;6.090;2023-01-15T05:08:44;99666.97;;;6.44;79.30
75692;BME280;64307;52.508;6.090;2023-01-15T05:11:10;99664.19;;;6.48;78.89
75692;BME280;64307;52.508;6.090;2023-01-15T05:13:35;99669.31;;;6.46;78.77
75692;BME280;64307;52.508;6.090;2023-01-15T05:16:16;99671.69;;;6.47;78.63
75692;BME280;64307;52.508;6.090;2023-01-15T05:18:42;99663.00;;;6.42;78.70
75692;BME280;64307;52.508;6.090;2023-01-15T05:21:23;99674.84;;;6.46;78.95
75692;BME280;64307;52.508;6.090;2023-01-15T05:23:50;99670.09;;;6.43;79.50
75692;BME280;64307;52.508;6.090;2023-01-15T05:26:16;99664.59;;;6.36;81.01
75692;BME280;64307;52.508;6.090;2023-01-15T05:28:42;99648.81;;;6.26;80.71
75692;BME280;64307;52.508;6.090;2023-01-15T05:31:09;99650.00;;;6.25;80.96
75692;BME280;64307;52.508;6.090;2023-01-15T05:33:35;99656.72;;;6.27;80.94
75692;BME280;64307;52.508;6.090;2023-01-15T05:36:09;99659.50;;;6.24;81.01
75692;BME280;64307;52.508;6.090;2023-01-15T05:38:35;99660.25;;;6.31;80.13
75692;BME280;64307;52.508;6.090;2023-01-15T05:41:05;99650.38;;;6.34;80.64
75692;BME280;64307;52.508;6.090;2023-01-15T05:43:50;99644.06;;;6.37;81.38
75692;BME280;64307;52.508;6.090;2023-01-15T05:46:16;99640.13;;;6.27;81.75
75692;BME280;64307;52.508;6.090;2023-01-15T05:48:41;99633.81;;;6.27;80.99
75692;BME280;64307;52.508;6.090;2023-01-15T05:51:06;99633.41;;;6.18;81.48
75692;BME280;64307;52.508;6.090;2023-01-15T05:53:32;99641.31;;;6.12;82.17
75692;BME280;64307;52.508;6.090;2023-01-15T05:56:02;99641.34;;;6.09;82.74
75692;BME280;64307;52.508;6.090;2023-01-15T05:58:28;99652.00;;;6.07;82.98
75692;BME280;64307;52.508;6.090;2023-01-15T06:00:53;99649.63;;;6.05;82.78
75692;BME280;64307;52.508;6.090;2023-01-15T06:03:21;99649.63;;;5.98;83.34
75692;BME280;64307;52.508;6.090;2023-01-15T06:05:50;99636.59;;;5.88;82.32
75692;BME280;64307;52.508;6.090;2023-01-15T06:08:16;99649.63;;;5.98;81.42
75692;BME280;64307;52.508;6.090;2023-01-15T06:10:43;99651.63;;;6.01;82.24
75692;BME280;64307;52.508;6.090;2023-01-15T06:13:08;99653.97;;;5.92;81.70
75692;BME280;64307;52.508;6.090;2023-01-15T06:15:33;99663.84;;;5.97;81.92
75692;BME280;64307;52.508;6.090;2023-01-15T06:17:59;99660.69;;;5.95;81.29
75692;BME280;64307;52.508;6.090;2023-01-15T06:20:24;99661.47;;;6.02;80.23
75692;BME280;64307;52.508;6.090;2023-01-15T06:22:49;99664.22;;;6.02;80.74
75692;BME280;64307;52.508;6.090;2023-01-15T06:25:14;99668.97;;;5.98;80.92
75692;BME280;64307;52.508;6.090;2023-01-15T06:27:40;99650.81;;;5.94;80.53
75692;BME280;64307;52.508;6.090;2023-01-15T06:30:09;99655.94;;;5.88;80.93
75692;BME280;64307;52.508;6.090;2023-01-15T06:32:35;99649.63;;;5.84;80.37
75692;BME280;64307;52.508;6.090;2023-01-15T06:35:00;99641.31;;;5.80;81.07
75692;BME280;64307;52.508;6.090;2023-01-15T06:37:25;99645.66;;;5.78;81.27
75692;BME280;64307;52.508;6.090;2023-01-15T06:39:50;99653.53;;;5.69;82.33
75692;BME280;64307;52.508;6.090;2023-01-15T06:42:16;99634.59;;;5.67;82.06
75692;BME280;64307;52.508;6.090;2023-01-15T06:45:00;99631.44;;;5.62;81.79
75692;BME280;64307;52.508;6.090;2023-01-15T06:47:44;99626.66;;;5.48;82.55
75692;BME280;64307;52.508;6.090;2023-01-15T06:50:10;99642.47;;;5.55;82.41
75692;BME280;64307;52.508;6.090;2023-01-15T06:52:36;99648.00;;;5.48;82.69
75692;BME280;64307;52.508;6.090;2023-01-15T06:55:01;99647.19;;;5.44;82.54
75692;BME280;64307;52.508;6.090;2023-01-15T06:57:26;99652.72;;;5.51;82.38
75692;BME280;64307;52.508;6.090;2023-01-15T06:59:51;99662.56;;;5.48;81.92
75692;BME280;64307;52.508;6.090;2023-01-15T07:02:17;99660.63;;;5.56;82.31
75692;BME280;64307;52.508;6.090;2023-01-15T07:04:42;99649.56;;;5.45;81.27
75692;BME280;64307;52.508;6.090;2023-01-15T07:07:08;99653.50;;;5.51;80.65
75692;BME280;64307;52.508;6.090;2023-01-15T07:09:34;99653.50;;;5.58;79.83
75692;BME280;64307;52.508;6.090;2023-01-15T07:11:59;99652.31;;;5.49;80.61
75692;BME280;64307;52.508;6.090;2023-01-15T07:14:25;99651.16;;;5.53;79.51
75692;BME280;64307;52.508;6.090;2023-01-15T07:16:52;99656.66;;;5.53;78.85
75692;BME280;64307;52.508;6.090;2023-01-15T07:19:18;99651.53;;;5.55;77.97
75692;BME280;64307;52.508;6.090;2023-01-15T07:21:43;99643.25;;;5.55;77.96
75692;BME280;64307;52.508;6.090;2023-01-15T07:24:10;99644.44;;;5.51;77.78
75692;BME280;64307;52.508;6.090;2023-01-15T07:26:36;99659.44;;;5.50;77.71
75692;BME280;64307;52.508;6.090;2023-01-15T07:29:02;99651.13;;;5.43;78.73
75692;BME280;64307;52.508;6.090;2023-01-15T07:31:27;99627.06;;;5.33;77.79
75692;BME280;64307;52.508;6.090;2023-01-15T07:33:55;99646.00;;;5.45;77.31
75692;BME280;64307;52.508;6.090;2023-01-15T07:36:20;99646.78;;;5.52;75.62
75692;BME280;64307;52.508;6.090;2023-01-15T07:38:45;99646.81;;;5.56;75.17
75692;BME280;64307;52.508;6.090;2023-01-15T07:41:11;99653.53;;;5.62;75.44
75692;BME280;64307;52.508;6.090;2023-01-15T07:43:55;99646.81;;;5.56;75.05
75692;BME280;64307;52.508;6.090;2023-01-15T07:46:39;99628.28;;;5.63;73.69
75692;BME280;64307;52.508;6.090;2023-01-15T07:49:23;99636.53;;;5.53;73.91
75692;BME280;64307;52.508;6.090;2023-01-15T07:52:08;99635.75;;;5.52;73.82
75692;BME280;64307;52.508;6.090;2023-01-15T07:54:33;99636.53;;;5.53;73.84
75692;BME280;64307;52.508;6.090;2023-01-15T07:56:58;99639.31;;;5.49;72.76
75692;BME280;64307;52.508;6.090;2023-01-15T07:59:24;99647.22;;;5.65;72.60
75692;BME280;64307;52.508;6.090;2023-01-15T08:01:50;99640.50;;;5.62;72.91
75692;BME280;64307;52.508;6.090;2023-01-15T08:04:15;99630.66;;;5.61;71.96
75692;BME280;64307;52.508;6.090;2023-01-15T08:06:41;99641.28;;;5.66;72.08
75692;BME280;64307;52.508;6.090;2023-01-15T08:09:06;99644.84;;;5.63;72.02
75692;BME280;64307;52.508;6.090;2023-01-15T08:11:34;99631.44;;;5.62;72.99
75692;BME280;64307;52.508;6.090;2023-01-15T08:14:18;99637.75;;;5.69;72.16
75692;BME280;64307;52.508;6.090;2023-01-15T08:17:02;99623.13;;;5.69;73.38
75692;BME280;64307;52.508;6.090;2023-01-15T08:19:27;99626.28;;;5.71;74.01
75692;BME280;64307;52.508;6.090;2023-01-15T08:21:56;99635.38;;;5.82;74.56
75692;BME280;64307;52.508;6.090;2023-01-15T08:24:22;99637.78;;;5.91;74.63
75692;BME280;64307;52.508;6.090;2023-01-15T08:26:47;99646.06;;;6.26;73.28
75692;BME280;64307;52.508;6.090;2023-01-15T08:29:13;99630.97;;;6.51;72.75
75692;BME280;64307;52.508;6.090;2023-01-15T08:31:38;99643.25;;;6.50;73.14
75692;BME280;64307;52.508;6.090;2023-01-15T08:34:06;99632.06;;;6.82;73.02
75692;BME280;64307;52.508;6.090;2023-01-15T08:36:31;99628.06;;;6.90;72.35
75692;BME280;64307;52.508;6.090;2023-01-15T08:38:56;99629.66;;;6.88;73.37
75692;BME280;64307;52.508;6.090;2023-01-15T08:41:21;99615.41;;;6.96;72.26
75692;BME280;64307;52.508;6.090;2023-01-15T08:43:47;99625.69;;;6.92;72.87
75692;BME280;64307;52.508;6.090;2023-01-15T08:46:12;99619.06;;;6.79;73.03
75692;BME280;64307;52.508;6.090;2023-01-15T08:48:37;99603.59;;;6.82;74.27
75692;BME280;64307;52.508;6.090;2023-01-15T08:51:07;99631.56;;;7.05;73.19
75692;BME280;64307;52.508;6.090;2023-01-15T08:53:34;99608.38;;;6.81;73.99
75692;BME280;64307;52.508;6.090;2023-01-15T08:55:59;99609.88;;;7.00;72.69
75692;BME280;64307;52.508;6.090;2023-01-15T08:58:29;99624.78;;;7.20;73.56
75692;BME280;64307;52.508;6.090;2023-01-15T09:00:55;99615.50;;;7.47;71.21
75692;BME280;64307;52.508;6.090;2023-01-15T09:03:21;99602.19;;;7.25;69.70
75692;BME280;64307;52.508;6.090;2023-01-15T09:05:46;99611.44;;;6.97;70.61
75692;BME280;64307;52.508;6.090;2023-01-15T09:08:12;99614.31;;;6.76;71.40
75692;BME280;64307;52.508;6.090;2023-01-15T09:10:37;99616.75;;;6.60;72.44
75692;BME280;64307;52.508;6.090;2023-01-15T09:13:03;99638.44;;;6.69;74.16
75692;BME280;64307;52.508;6.090;2023-01-15T09:15:30;99625.56;;;7.17;72.52
75692;BME280;64307;52.508;6.090;2023-01-15T09:17:56;99626.97;;;7.50;72.55
75692;BME280;64307;52.508;6.090;2023-01-15T09:20:21;99604.31;;;7.03;73.54
75692;BME280;64307;52.508;6.090;2023-01-15T09:22:47;99615.41;;;6.96;74.00
75692;BME280;64307;52.508;6.090;2023-01-15T09:25:13;99605.97;;;6.87;74.04
75692;BME280;64307;52.508;6.090;2023-01-15T09:27:40;99599.19;;;6.95;74.26
75692;BME280;64307;52.508;6.090;2023-01-15T09:30:06;99619.72;;;7.08;72.99
75692;BME280;64307;52.508;6.090;2023-01-15T09:32:31;99628.06;;;6.97;73.72
75692;BME280;64307;52.508;6.090;2023-01-15T09:34:57;99628.91;;;6.87;75.10
75692;BME280;64307;52.508;6.090;2023-01-15T09:37:22;99643.66;;;6.38;78.94
75692;BME280;64307;52.508;6.090;2023-01-15T09:39:47;99658.31;;;6.04;82.79
75692;BME280;64307;52.508;6.090;2023-01-15T09:45:27;99639.31;;;5.63;84.82
75692;BME280;64307;52.508;6.090;2023-01-15T09:48:19;99636.16;;;5.75;84.05
75692;BME280;64307;52.508;6.090;2023-01-15T09:53:44;99653.16;;;5.70;85.38
75692;BME280;64307;52.508;6.090;2023-01-15T09:56:28;99662.97;;;5.64;83.76
75692;BME280;64307;52.508;6.090;2023-01-15T09:58:58;99648.78;;;5.59;85.82
75692;BME280;64307;52.508;6.090;2023-01-15T10:01:27;99644.84;;;5.63;85.31
75692;BME280;64307;52.508;6.090;2023-01-15T10:04:00;99633.81;;;5.70;84.70
75692;BME280;64307;52.508;6.090;2023-01-15T10:06:32;99631.44;;;5.76;84.13
75692;BME280;64307;52.508;6.090;2023-01-15T10:11:38;99617.06;;;6.76;80.98
75692;BME280;64307;52.508;6.090;2023-01-15T10:14:44;99633.66;;;6.83;79.49
75692;BME280;64307;52.508;6.090;2023-01-15T10:17:43;99644.28;;;6.88;79.13
75692;BME280;64307;52.508;6.090;2023-01-15T10:20:21;99637.06;;;7.15;79.47
75692;BME280;64307;52.508;6.090;2023-01-15T10:23:16;99628.28;;;7.27;77.66
75692;BME280;64307;52.508;6.090;2023-01-15T10:25:50;99632.63;;;8.35;74.81
75692;BME280;64307;52.508;6.090;2023-01-15T10:30:52;99623.13;;;8.69;70.82
75692;BME280;64307;52.508;6.090;2023-01-15T10:33:42;99644.47;;;7.36;75.00
75692;BME280;64307;52.508;6.090;2023-01-15T10:36:38;99623.09;;;7.36;77.16
75692;BME280;64307;52.508;6.090;2023-01-15T10:39:17;99630.28;;;7.23;77.71
75692;BME280;64307;52.508;6.090;2023-01-15T10:42:12;99631.94;;;7.14;77.11
75692;BME280;64307;52.508;6.090;2023-01-15T10:44:58;99654.16;;;6.96;81.14
75692;BME280;64307;52.508;6.090;2023-01-15T10:47:33;99639.22;;;6.76;80.52
75692;BME280;64307;52.508;6.090;2023-01-15T10:50:12;99628.16;;;6.73;80.02
75692;BME280;64307;52.508;6.090;2023-01-15T10:52:39;99631.69;;;6.80;82.06
75692;BME280;64307;52.508;6.090;2023-01-15T10:55:18;99641.91;;;6.90;79.37
75692;BME280;64307;52.508;6.090;2023-01-15T10:57:52;99646.28;;;6.84;79.87
75692;BME280;64307;52.508;6.090;2023-01-15T11:00:20;99631.72;;;6.73;78.91
75692;BME280;64307;52.508;6.090;2023-01-15T11:05:23;99634.84;;;10.44;66.57
75692;BME280;64307;52.508;6.090;2023-01-15T11:07:51;99652.97;;;10.32;66.59
75692;BME280;64307;52.508;6.090;2023-01-15T11:10:20;99653.59;;;12.25;60.73
75692;BME280;64307;52.508;6.090;2023-01-15T11:12:57;99667.09;;;13.95;52.80
75692;BME280;64307;52.508;6.090;2023-01-15T11:15:46;99667.16;;;16.33;47.66
75692;BME280;64307;52.508;6.090;2023-01-15T11:18:38;99659.34;;;12.18;56.81
75692;BME280;64307;52.508;6.090;2023-01-15T11:21:23;99662.69;;;8.80;69.88
75692;BME280;64307;52.508;6.090;2023-01-15T11:23:49;99664.06;;;8.17;71.75
75692;BME280;64307;52.508;6.090;2023-01-15T11:26:24;99645.56;;;9.72;67.33
75692;BME280;64307;52.508;6.090;2023-01-15T11:28:52;99651.94;;;9.96;66.55
75692;BME280;64307;52.508;6.090;2023-01-15T11:31:18;99656.56;;;9.53;67.35
75692;BME280;64307;52.508;6.090;2023-01-15T11:33:56;99660.41;;;8.68;70.21
75692;BME280;64307;52.508;6.090;2023-01-15T11:36:25;99636.06;;;8.01;71.70
75692;BME280;64307;52.508;6.090;2023-01-15T11:38:51;99657.78;;;10.28;66.97
75692;BME280;64307;52.508;6.090;2023-01-15T11:41:26;99644.38;;;10.66;63.91
75692;BME280;64307;52.508;6.090;2023-01-15T11:44:19;99641.06;;;10.51;64.84
75692;BME280;64307;52.508;6.090;2023-01-15T11:47:17;99631.69;;;9.69;66.58
75692;BME280;64307;52.508;6.090;2023-01-15T11:50:01;99642.41;;;12.86;56.14
75692;BME280;64307;52.508;6.090;2023-01-15T11:52:54;99641.38;;;10.11;63.71
75692;BME280;64307;52.508;6.090;2023-01-15T11:55:24;99635.56;;;8.91;69.24
75692;BME280;64307;52.508;6.090;2023-01-15T11:57:51;99623.56;;;9.28;67.86
75692;BME280;64307;52.508;6.090;2023-01-15T12:00:26;99655.38;;;8.60;69.38
75692;BME280;64307;52.508;6.090;2023-01-15T12:02:56;99635.09;;;8.22;73.16
75692;BME280;64307;52.508;6.090;2023-01-15T12:05:30;99656.00;;;8.34;72.33
75692;BME280;64307;52.508;6.090;2023-01-15T12:07:58;99638.81;;;8.49;72.84
75692;BME280;64307;52.508;6.090;2023-01-15T12:10:54;99637.22;;;9.16;70.35
75692;BME280;64307;52.508;6.090;2023-01-15T12:16:52;99644.16;;;7.82;75.56
75692;BME280;64307;52.508;6.090;2023-01-15T12:30:40;99646.38;;;8.01;76.24
75692;BME280;64307;52.508;6.090;2023-01-15T12:33:10;99642.34;;;8.09;76.50
75692;BME280;64307;52.508;6.090;2023-01-15T12:35:47;99630.34;;;8.19;74.95
75692;BME280;64307;52.508;6.090;2023-01-15T12:38:48;99624.94;;;8.49;74.16
75692;BME280;64307;52.508;6.090;2023-01-15T12:41:22;99626.34;;;8.98;71.50
75692;BME280;64307;52.508;6.090;2023-01-15T12:43:55;99624.41;;;8.61;72.08
75692;BME280;64307;52.508;6.090;2023-01-15T12:46:42;99607.88;;;8.51;72.94
75692;BME280;64307;52.508;6.090;2023-01-15T12:49:30;99634.19;;;8.36;73.36
75692;BME280;64307;52.508;6.090;2023-01-15T12:55:27;99643.44;;;7.71;77.73
75692;BME280;64307;52.508;6.090;2023-01-15T12:58:00;99622.06;;;7.68;78.96
75692;BME280;64307;52.508;6.090;2023-01-15T13:00:36;99622.25;;;7.47;77.93
75692;BME280;64307;52.508;6.090;2023-01-15T13:03:27;99636.00;;;7.61;78.66
75692;BME280;64307;52.508;6.090;2023-01-15T13:06:00;99643.44;;;7.71;78.30
75692;BME280;64307;52.508;6.090;2023-01-15T13:08:34;99645.09;;;7.61;78.99
75692;BME280;64307;52.508;6.090;2023-01-15T13:11:02;99648.28;;;7.56;78.76
75692;BME280;64307;52.508;6.090;2023-01-15T13:13:31;99640.88;;;7.42;79.88
75692;BME280;64307;52.508;6.090;2023-01-15T13:16:04;99659.53;;;7.31;80.55
75692;BME280;64307;52.508;6.090;2023-01-15T13:18:48;99666.69;;;7.18;80.04
75692;BME280;64307;52.508;6.090;2023-01-15T13:21:18;99663.91;;;7.25;80.55
75692;BME280;64307;52.508;6.090;2023-01-15T13:32:18;99649.56;;;7.44;80.83
75692;BME280;64307;52.508;6.090;2023-01-15T13:34:49;99648.03;;;7.33;81.46
75692;BME280;64307;52.508;6.090;2023-01-15T13:37:29;99664.28;;;7.27;81.79
75692;BME280;64307;52.508;6.090;2023-01-15T13:40:00;99666.69;;;7.25;82.48
75692;BME280;64307;52.508;6.090;2023-01-15T13:42:27;99645.97;;;7.47;81.66
75692;BME280;64307;52.508;6.090;2023-01-15T13:47:45;99676.34;;;7.65;81.56
75692;BME280;64307;52.508;6.090;2023-01-15T13:50:15;99671.25;;;7.57;80.54
75692;BME280;64307;52.508;6.090;2023-01-15T13:52:41;99670.50;;;7.45;81.12
75692;BME280;64307;52.508;6.090;2023-01-15T13:55:10;99674.34;;;7.69;81.00
75692;BME280;64307;52.508;6.090;2023-01-15T13:57:42;99675.09;;;7.70;81.29
75692;BME280;64307;52.508;6.090;2023-01-15T14:02:53;99672.44;;;7.59;79.74
75692;BME280;64307;52.508;6.090;2023-01-15T14:07:47;99681.66;;;7.38;81.43
75692;BME280;64307;52.508;6.090;2023-01-15T14:16:11;99678.09;;;7.31;82.77
75692;BME280;64307;52.508;6.090;2023-01-15T14:19:06;99680.09;;;7.34;81.41
75692;BME280;64307;52.508;6.090;2023-01-15T14:24:24;99701.53;;;7.12;83.53
75692;BME280;64307;52.508;6.090;2023-01-15T14:30:02;99722.56;;;6.92;85.96
75692;BME280;64307;52.508;6.090;2023-01-15T14:32:57;99736.03;;;6.76;88.12
75692;BME280;64307;52.508;6.090;2023-01-15T14:35:36;99758.50;;;5.79;88.52
75692;BME280;64307;52.508;6.090;2023-01-15T14:38:07;99752.06;;;5.40;90.66
75692;BME280;64307;52.508;6.090;2023-01-15T14:40:36;99761.06;;;5.16;92.51
75692;BME280;64307;52.508;6.090;2023-01-15T14:43:16;99768.63;;;5.33;93.14
75692;BME280;64307;52.508;6.090;2023-01-15T14:45:44;99781.28;;;5.45;93.07
75692;BME280;64307;52.508;6.090;2023-01-15T14:50:53;99786.84;;;5.55;91.95
75692;BME280;64307;52.508;6.090;2023-01-15T15:01:16;99802.28;;;5.63;91.75